< < Back
Terminal Aerodrome Forecast


Current Version              Previous Versions:   1  2  3  4  5  6  7  8  9  

Terminal Aerodrome Forecast

850
FTUS42 KFFC 232300
TAFAHN
TAF
KAHN 232320Z 2400/2424 00000KT P6SM SCT250
     FM241600 30003KT P6SM SCT200=

Latest METAR

354
SAUS70 KWBC 240854
MTRAHN
METAR KAHN 240851Z AUTO 00000KT 10SM CLR 08/07 A3002 RMK AO2 SLP165
T00780067 56004


USA.gov is the U.S. government's official web portal to all federal, state and local government web resources and services.